Sunday, February 17, 2019, 4:03 PM EST
Back to Local

KMPV, Knapp State Airport

Location: Barre, VT, United States Lat: 44.2
Local Time: 4:03 PM EST (21:03 GMT) Lon: -72.567
Time Zone: US/Eastern Elev: 1164 ft

Show me the last for .
Show Decoded

2019-02-17 15:51 METAR KMPV 172051Z AUTO 05005KT 10SM CLR M06/M15 A3005 RMK AO2 SLP200 I1000
                 I3000 T10561150 58017 $ =
2019-02-17 14:51 METAR KMPV 171951Z AUTO 00000KT 10SM CLR M06/M16 A3009 RMK AO2 SLP213 T10561156
                 $ =
2019-02-17 13:51 METAR KMPV 171851Z AUTO 00000KT 10SM CLR M06/M16 A3007 RMK AO2 SLP205 I1000
                 T10611156 $ =
2019-02-17 12:51 METAR KMPV 171751Z AUTO 01005KT 10SM CLR M07/M16 A3010 RMK AO2 SLP218 I6000
                 T10721156 11072 21161 58016 $ =
2019-02-17 11:51 METAR KMPV 171651Z AUTO 31005KT 10SM CLR M09/M16 A3012 RMK AO2 SLP223 I1000
                 T10941156 $ =
2019-02-17 10:51 METAR KMPV 171551Z AUTO 00000KT 10SM CLR M09/M16 A3014 RMK AO2 SLP231 T10941156
                 $ =
2019-02-17 09:51 METAR KMPV 171451Z AUTO 00000KT 10SM CLR M12/M16 A3015 RMK AO2 SLP236 I1000
                 I3000 T11171156 50013 $ =
2019-02-17 08:51 METAR KMPV 171351Z AUTO 34004KT 10SM CLR M13/M16 A3015 RMK AO2 SLP237 T11331156
                 $ =
2019-02-17 07:51 METAR KMPV 171251Z AUTO 00000KT 10SM CLR M16/M17 A3015 RMK AO2 SLP238 T11561172
                 $ =
2019-02-17 06:51 METAR KMPV 171151Z AUTO 30003KT 10SM CLR M16/M17 A3011 RMK AO2 SLP224 T11561172
                 11100 21161 51015 $ =
2019-02-17 05:51 METAR KMPV 171051Z AUTO 30003KT 10SM CLR M15/M17 A3010 RMK AO2 SLP217 T11501167
                 $ =
2019-02-17 04:51 METAR KMPV 170951Z AUTO 00000KT 10SM CLR M16/M17 A3009 RMK AO2 SLP214 T11561172
                 $ =
2019-02-17 03:51 METAR KMPV 170851Z AUTO 00000KT 10SM CLR M14/M16 A3007 RMK AO2 SLP205 T11391161
                 51006 $ =
2019-02-17 02:51 METAR KMPV 170751Z AUTO 19003KT 10SM CLR M13/M15 A3006 RMK AO2 SLP202 T11331150
                 $ =
2019-02-17 02:28 METAR KMPV 170728Z AUTO 00000KT 10SM SCT017 M12/M15 A3006 RMK AO2 T11221150 $ =
2019-02-17 02:16 METAR KMPV 170716Z AUTO 00000KT 10SM BKN017 M12/M14 A3007 RMK AO2 T11171144 $ =
2019-02-17 02:00 METAR KMPV 170700Z AUTO VRB03KT 10SM SCT017 M11/M14 A3006 RMK AO2 T11111144 $ =
2019-02-17 01:51 METAR KMPV 170651Z AUTO 34003KT 10SM BKN020 M11/M14 A3006 RMK AO2 SLP200
                 T11111144 $ =
2019-02-17 00:51 METAR KMPV 170551Z AUTO 31006KT 10SM OVC024 M10/M14 A3005 RMK AO2 SNB13E22
                 SLP196 P0000 60000 T11001139 11072 21100 53021 $ =
2019-02-16 23:51 METAR KMPV 170451Z AUTO 32009KT 10SM OVC023 M09/M13 A3002 RMK AO2 SLP186
                 T10941133 410171094 =
2019-02-16 22:51 METAR KMPV 170351Z AUTO 31010KT 10SM OVC029 M09/M13 A3000 RMK AO2 SLP179
                 T10891133 =
2019-02-16 21:51 METAR KMPV 170251Z AUTO 30008KT 10SM OVC026 M08/M13 A2998 RMK AO2 SLP173
                 T10831133 50009 =
2019-02-16 21:32 METAR KMPV 170232Z AUTO 31006KT 10SM BKN028 OVC033 M09/M13 A2998 RMK AO2
                 T10891133 =
2019-02-16 20:51 METAR KMPV 170151Z AUTO 33004KT 10SM BKN030 OVC036 M08/M13 A2999 RMK AO2 SLP176
                 T10831133 =
2019-02-16 19:51 METAR KMPV 170051Z AUTO 35008G14KT 10SM CLR M08/M13 A2996 RMK AO2 SLP166
                 T10781128 =
2019-02-16 18:51 METAR KMPV 162351Z AUTO 31012KT 10SM CLR M07/M13 A2996 RMK AO2 SLP164 T10721128
                 11022 21072 51033 =
2019-02-16 17:51 METAR KMPV 162251Z AUTO 33008KT 10SM FEW034 M07/M12 A2993 RMK AO2 SLP156
                 T10671117 =
2019-02-16 16:51 METAR KMPV 162151Z AUTO 31012G19KT 10SM CLR M05/M12 A2989 RMK AO2 SLP139
                 T10501117 =

Support USWX by starting your Amazon purchase here.